createdAt,value
2023-05-05T00:00:03.784Z,66.2246
2023-05-05T00:01:06.126Z,66.3789
2023-05-05T00:02:08.451Z,66.5364
2023-05-05T00:03:10.817Z,66.7453
2023-05-05T00:04:13.120Z,66.7586
2023-05-05T00:05:15.451Z,66.6573
2023-05-05T00:06:17.767Z,67.5247
2023-05-05T00:07:20.128Z,67.5300
2023-05-05T00:08:22.472Z,67.3431
2023-05-05T00:09:24.793Z,67.1678
2023-05-05T00:10:27.151Z,67.0120
2023-05-05T00:11:29.480Z,66.5958
2023-05-05T00:12:31.887Z,66.4632
2023-05-05T00:13:34.232Z,66.5717
2023-05-05T00:14:36.486Z,66.7327
2023-05-05T00:15:38.787Z,66.8855
2023-05-05T00:16:41.158Z,66.8196
2023-05-05T00:17:43.576Z,66.9628
2023-05-05T00:18:45.794Z,66.8200
2023-05-05T00:19:48.176Z,66.7592
2023-05-05T00:20:50.511Z,66.8440
2023-05-05T00:21:52.850Z,66.9935
2023-05-05T00:22:55.152Z,67.0961
2023-05-05T00:23:57.999Z,67.2260
2023-05-05T00:25:00.753Z,67.2754
2023-05-05T00:26:02.164Z,67.3239
2023-05-05T00:27:04.523Z,67.5018
2023-05-05T00:28:06.857Z,67.5747
2023-05-05T00:29:09.203Z,67.4042
2023-05-05T00:30:11.508Z,67.3099
2023-05-05T00:31:13.936Z,67.3417
2023-05-05T00:32:16.225Z,67.3140
2023-05-05T00:33:18.544Z,67.3656
2023-05-05T00:34:20.884Z,67.5140
2023-05-05T00:35:23.221Z,67.7031
2023-05-05T00:36:25.639Z,67.9035
2023-05-05T00:37:27.929Z,67.8413
2023-05-05T00:38:30.322Z,67.6721
2023-05-05T00:39:32.652Z,67.8036
2023-05-05T00:40:34.984Z,67.6923
2023-05-05T00:41:37.286Z,67.7613
2023-05-05T00:42:39.630Z,67.5239
2023-05-05T00:43:42.049Z,65.8977
2023-05-05T00:44:44.319Z,64.9596
2023-05-05T00:45:46.666Z,65.8346
2023-05-05T00:46:49.515Z,66.2851
2023-05-05T00:47:51.491Z,65.5488
2023-05-05T00:48:54.196Z,66.3134
2023-05-05T00:49:56.393Z,66.3119
2023-05-05T00:50:58.312Z,64.7141
2023-05-05T00:52:00.671Z,64.9108
2023-05-05T00:53:03.035Z,64.7461
2023-05-05T00:54:05.401Z,65.1610
2023-05-05T00:55:08.055Z,65.2681
2023-05-05T00:56:10.074Z,64.6937
2023-05-05T00:57:12.825Z,64.9007
2023-05-05T00:58:15.201Z,65.1923
2023-05-05T00:59:17.411Z,64.8942
2023-05-05T01:00:19.359Z,65.1975
2023-05-05T01:01:21.788Z,65.1253
2023-05-05T01:02:24.079Z,66.4604
2023-05-05T01:03:26.912Z,67.1032
2023-05-05T01:04:28.764Z,67.4736
2023-05-05T01:05:31.216Z,68.0114
2023-05-05T01:06:34.079Z,68.0915
2023-05-05T01:07:36.557Z,68.1035
2023-05-05T01:08:38.062Z,68.2898
2023-05-05T01:09:40.400Z,68.3010
2023-05-05T01:10:42.765Z,68.1019
2023-05-05T01:11:45.058Z,68.0503
2023-05-05T01:12:47.498Z,67.9675
2023-05-05T01:13:49.784Z,68.0257
2023-05-05T01:14:52.102Z,68.4975
2023-05-05T01:15:54.434Z,68.5543
2023-05-05T01:16:56.785Z,68.3931
2023-05-05T01:17:59.132Z,68.3282
2023-05-05T01:19:01.419Z,68.2631
2023-05-05T01:20:03.751Z,68.3759
2023-05-05T01:21:06.102Z,68.4928
2023-05-05T01:22:08.569Z,68.6248
2023-05-05T01:23:10.781Z,68.8457
2023-05-05T01:24:13.225Z,68.7546
2023-05-05T01:25:15.514Z,68.5239
2023-05-05T01:26:17.808Z,68.5610
2023-05-05T01:27:20.140Z,68.7357
2023-05-05T01:28:22.448Z,68.8773
2023-05-05T01:29:24.787Z,68.8836
2023-05-05T01:30:27.127Z,69.0865
2023-05-05T01:31:29.460Z,69.7446
2023-05-05T01:32:31.858Z,69.7905
2023-05-05T01:33:34.268Z,69.3206
2023-05-05T01:34:36.438Z,69.0351
2023-05-05T01:35:38.755Z,68.9392
2023-05-05T01:36:41.077Z,69.0878
2023-05-05T01:37:43.478Z,69.2924
2023-05-05T01:38:46.376Z,69.2393
2023-05-05T01:39:48.252Z,69.3016
2023-05-05T01:40:50.470Z,69.5735
2023-05-05T01:41:52.871Z,69.5513
2023-05-05T01:42:55.536Z,69.5325
2023-05-05T01:43:57.435Z,69.5857
2023-05-05T01:44:59.834Z,69.5139
2023-05-05T01:46:02.139Z,69.4626
2023-05-05T01:47:04.445Z,69.6472
2023-05-05T01:48:06.774Z,69.6606
2023-05-05T01:49:09.077Z,69.8176
2023-05-05T01:50:11.424Z,69.8944
2023-05-05T01:51:13.770Z,69.8188
2023-05-05T01:52:16.106Z,69.8689
2023-05-05T01:53:18.425Z,69.9247
2023-05-05T01:54:20.738Z,69.8760
2023-05-05T01:55:23.083Z,69.8434
2023-05-05T01:56:25.418Z,69.8411
2023-05-05T01:57:27.778Z,69.9345
2023-05-05T01:58:30.126Z,70.1277
2023-05-05T01:59:32.510Z,70.2515
2023-05-05T02:00:34.777Z,70.0034
2023-05-05T02:01:37.147Z,69.7006
2023-05-05T02:02:39.546Z,69.7313
2023-05-05T02:03:41.778Z,69.6257
2023-05-05T02:04:44.097Z,69.5469
2023-05-05T02:05:46.597Z,69.7514
2023-05-05T02:06:48.780Z,69.7844
2023-05-05T02:07:51.087Z,69.7110
2023-05-05T02:08:53.471Z,69.6604
2023-05-05T02:09:55.753Z,69.7026
2023-05-05T02:10:58.129Z,69.7402
2023-05-05T02:12:00.462Z,69.8202
2023-05-05T02:13:02.824Z,69.7533
2023-05-05T02:14:05.148Z,69.8287
2023-05-05T02:15:07.470Z,69.8567
2023-05-05T02:16:09.841Z,69.7970
2023-05-05T02:17:12.140Z,69.8507
2023-05-05T02:18:14.476Z,69.4902
2023-05-05T02:19:16.790Z,69.5321
2023-05-05T02:20:19.098Z,69.6059
2023-05-05T02:21:21.486Z,69.6061
2023-05-05T02:22:23.807Z,69.6707
2023-05-05T02:23:26.147Z,69.7159
2023-05-05T02:24:28.520Z,69.5307
2023-05-05T02:25:30.775Z,69.5766
2023-05-05T02:26:33.165Z,69.6370
2023-05-05T02:27:35.468Z,69.5930
2023-05-05T02:28:37.831Z,69.7721
2023-05-05T02:29:40.164Z,69.9335
2023-05-05T02:30:42.492Z,70.0068
2023-05-05T02:31:44.964Z,69.9505
2023-05-05T02:32:47.214Z,69.9834
2023-05-05T02:33:49.498Z,69.9382
2023-05-05T02:34:51.822Z,69.9917
2023-05-05T02:35:54.126Z,70.0577
2023-05-05T02:36:56.468Z,70.1943
2023-05-05T02:37:58.786Z,70.0300
2023-05-05T02:39:01.135Z,70.1369
2023-05-05T02:40:03.501Z,70.2008
2023-05-05T02:41:05.791Z,69.8907
2023-05-05T02:42:08.182Z,69.9698
2023-05-05T02:43:10.568Z,69.9000
2023-05-05T02:44:12.815Z,69.7493
2023-05-05T02:45:15.176Z,69.9130
2023-05-05T02:46:17.491Z,69.9910
2023-05-05T02:47:19.828Z,69.8713
2023-05-05T02:48:22.137Z,70.0776
2023-05-05T02:49:24.517Z,69.9425
2023-05-05T02:50:26.858Z,70.1287
2023-05-05T02:51:29.177Z,70.3687
2023-05-05T02:52:31.559Z,70.3948
2023-05-05T02:53:33.796Z,70.3731
2023-05-05T02:54:36.130Z,70.1806
2023-05-05T02:55:38.480Z,70.2536
2023-05-05T02:56:40.802Z,70.2100
2023-05-05T02:57:43.166Z,70.3514
2023-05-05T02:58:45.470Z,70.5339
2023-05-05T02:59:47.814Z,70.5710
2023-05-05T03:00:50.136Z,70.5076
2023-05-05T03:01:52.558Z,70.3593
2023-05-05T03:02:54.947Z,70.4069
2023-05-05T03:03:57.322Z,70.5753
2023-05-05T03:04:59.482Z,70.8111
2023-05-05T03:06:01.858Z,70.8466
2023-05-05T03:07:04.146Z,70.8425
2023-05-05T03:08:06.508Z,70.6083
2023-05-05T03:09:08.862Z,70.4245
2023-05-05T03:10:11.184Z,70.7318
2023-05-05T03:11:13.528Z,70.8773
2023-05-05T03:12:15.844Z,70.9714
2023-05-05T03:13:18.196Z,70.9692
2023-05-05T03:14:20.502Z,70.7720
2023-05-05T03:15:22.847Z,70.6203
2023-05-05T03:16:25.214Z,70.5419
2023-05-05T03:17:27.501Z,70.7513
2023-05-05T03:18:29.835Z,71.3326
2023-05-05T03:19:32.171Z,71.4622
2023-05-05T03:20:34.486Z,71.2924
2023-05-05T03:21:36.816Z,71.2097
2023-05-05T03:22:39.305Z,71.3029
2023-05-05T03:23:41.485Z,71.2978
2023-05-05T03:24:43.796Z,71.4402
2023-05-05T03:25:46.165Z,71.3846
2023-05-05T03:26:48.495Z,71.4747
2023-05-05T03:27:50.784Z,71.4738
2023-05-05T03:28:53.156Z,71.6316
2023-05-05T03:29:55.473Z,71.3954
2023-05-05T03:30:57.822Z,71.2753
2023-05-05T03:32:00.181Z,71.2540
2023-05-05T03:33:02.521Z,71.2995
2023-05-05T03:34:04.802Z,71.3792
2023-05-05T03:35:07.126Z,71.3722
2023-05-05T03:36:09.489Z,71.3919
2023-05-05T03:37:11.840Z,71.4706
2023-05-05T03:38:14.154Z,71.4262
2023-05-05T03:39:16.521Z,71.4796
2023-05-05T03:40:18.827Z,71.3656
2023-05-05T03:41:21.142Z,71.1983
2023-05-05T03:42:23.510Z,71.0794
2023-05-05T03:43:25.927Z,71.0644
2023-05-05T03:44:28.202Z,71.6958
2023-05-05T03:45:30.505Z,71.7868
2023-05-05T03:46:32.803Z,71.6476
2023-05-05T03:47:35.322Z,71.3879
2023-05-05T03:48:37.510Z,71.3769
2023-05-05T03:49:39.839Z,71.4787
2023-05-05T03:50:42.142Z,71.5069
2023-05-05T03:51:44.484Z,71.5692
2023-05-05T03:52:46.807Z,71.5251
2023-05-05T03:53:49.179Z,71.6219
2023-05-05T03:54:51.486Z,71.7499
2023-05-05T03:55:53.811Z,71.6871
2023-05-05T03:56:56.174Z,71.2294
2023-05-05T03:57:58.514Z,71.1398
2023-05-05T03:59:00.889Z,71.0000
2023-05-05T04:00:03.185Z,70.9724
2023-05-05T04:01:05.526Z,70.8072
2023-05-05T04:02:07.940Z,70.6953
2023-05-05T04:03:10.412Z,70.8794
2023-05-05T04:04:12.657Z,70.8865
2023-05-05T04:05:14.896Z,70.8586
2023-05-05T04:06:17.183Z,70.7895
2023-05-05T04:07:19.526Z,70.8419
2023-05-05T04:08:21.844Z,70.8326
2023-05-05T04:09:24.204Z,70.8241
2023-05-05T04:10:26.566Z,70.8467
2023-05-05T04:11:28.874Z,70.9186
2023-05-05T04:12:31.252Z,70.7259
2023-05-05T04:13:33.538Z,70.5505
2023-05-05T04:14:35.894Z,70.5599
2023-05-05T04:15:38.261Z,70.3156
2023-05-05T04:16:40.859Z,69.9058
2023-05-05T04:17:42.945Z,69.4617
2023-05-05T04:18:45.431Z,69.5716
2023-05-05T04:19:47.577Z,69.6710
2023-05-05T04:20:49.920Z,69.3863
2023-05-05T04:21:52.480Z,69.3582
2023-05-05T04:22:54.547Z,69.4776
2023-05-05T04:23:56.936Z,69.6261
2023-05-05T04:24:59.660Z,69.5741
2023-05-05T04:26:01.599Z,69.5032
2023-05-05T04:27:03.896Z,69.4523
2023-05-05T04:28:06.240Z,69.7746
2023-05-05T04:29:08.552Z,69.9092
2023-05-05T04:30:10.913Z,70.0646
2023-05-05T04:31:13.329Z,69.9162
2023-05-05T04:32:15.950Z,69.8209
2023-05-05T04:33:18.019Z,69.8470
2023-05-05T04:34:20.412Z,69.8008
2023-05-05T04:35:22.670Z,69.6069
2023-05-05T04:36:24.950Z,69.5229
2023-05-05T04:37:27.309Z,69.3795
2023-05-05T04:38:29.697Z,69.6530
2023-05-05T04:39:31.954Z,69.9540
2023-05-05T04:40:34.326Z,69.9982
2023-05-05T04:41:36.751Z,70.0542
2023-05-05T04:42:39.080Z,69.9274
2023-05-05T04:43:41.388Z,69.5965
2023-05-05T04:44:43.752Z,69.0904
2023-05-05T04:45:46.456Z,69.7135
2023-05-05T04:46:48.486Z,69.2132
2023-05-05T04:47:51.028Z,67.7213
2023-05-05T04:48:53.075Z,68.1647
2023-05-05T04:49:55.440Z,69.0867
2023-05-05T04:50:57.838Z,68.5898
2023-05-05T04:52:00.169Z,68.0053
2023-05-05T04:53:02.453Z,67.0971
2023-05-05T04:54:04.800Z,66.3072
2023-05-05T04:55:07.154Z,65.6886
2023-05-05T04:56:09.491Z,65.3812
2023-05-05T04:57:11.875Z,66.5693
2023-05-05T04:58:14.188Z,66.7800
2023-05-05T04:59:16.529Z,65.5890
2023-05-05T05:00:18.837Z,65.2650
2023-05-05T05:01:21.255Z,66.7167
2023-05-05T05:02:24.079Z,68.5096
2023-05-05T05:03:26.010Z,69.3158
2023-05-05T05:04:29.534Z,69.6596
2023-05-05T05:05:30.576Z,69.6915
2023-05-05T05:06:32.915Z,69.6452
2023-05-05T05:07:35.260Z,69.4494
2023-05-05T05:08:37.561Z,69.3061
2023-05-05T05:09:39.934Z,69.3873
2023-05-05T05:10:42.250Z,69.4538
2023-05-05T05:11:44.603Z,69.4953
2023-05-05T05:12:46.962Z,69.3505
2023-05-05T05:13:49.287Z,69.6388
2023-05-05T05:14:51.628Z,69.4713
2023-05-05T05:15:53.938Z,69.1209
2023-05-05T05:16:56.312Z,69.0603
2023-05-05T05:17:58.652Z,69.1221
2023-05-05T05:19:01.823Z,69.0801
2023-05-05T05:20:03.341Z,68.9335
2023-05-05T05:21:05.664Z,69.3092
2023-05-05T05:22:08.018Z,69.2304
2023-05-05T05:23:10.358Z,69.2458
2023-05-05T05:24:12.735Z,69.1510
2023-05-05T05:25:14.999Z,69.1237
2023-05-05T05:26:17.343Z,69.0964
2023-05-05T05:27:19.688Z,69.4892
2023-05-05T05:28:22.033Z,69.9627
2023-05-05T05:29:24.326Z,70.3565
2023-05-05T05:30:26.678Z,70.1187
2023-05-05T05:31:29.016Z,69.8966
2023-05-05T05:32:31.371Z,70.5899
2023-05-05T05:33:33.728Z,70.8401
2023-05-05T05:34:36.039Z,71.1932
2023-05-05T05:35:38.396Z,71.4145
2023-05-05T05:36:40.723Z,70.9265
2023-05-05T05:37:43.021Z,70.5762
2023-05-05T05:38:45.436Z,70.7066
2023-05-05T05:39:47.743Z,71.1002
2023-05-05T05:40:50.056Z,70.8399
2023-05-05T05:41:52.381Z,70.3523
2023-05-05T05:42:54.741Z,70.7166
2023-05-05T05:43:57.076Z,71.0237
2023-05-05T05:44:59.402Z,71.1970
2023-05-05T05:46:01.874Z,70.7691
2023-05-05T05:47:04.060Z,70.5433
2023-05-05T05:48:06.419Z,70.5400
2023-05-05T05:49:08.748Z,70.3032
2023-05-05T05:50:11.194Z,69.2883
2023-05-05T05:51:13.450Z,68.8672
2023-05-05T05:52:15.788Z,69.1582
2023-05-05T05:53:18.133Z,69.1714
2023-05-05T05:54:20.507Z,69.1870
2023-05-05T05:55:22.810Z,67.8947
2023-05-05T05:56:25.155Z,67.7258
2023-05-05T05:57:27.477Z,67.6029
2023-05-05T05:58:29.934Z,67.7640
2023-05-05T05:59:32.177Z,67.2413
2023-05-05T06:00:34.539Z,67.6859
2023-05-05T06:01:36.916Z,67.8334
2023-05-05T06:02:39.268Z,68.7789
2023-05-05T06:03:41.606Z,68.9501
2023-05-05T06:04:43.920Z,68.8750
2023-05-05T06:05:46.196Z,68.8622
2023-05-05T06:06:48.523Z,69.0196
2023-05-05T06:07:50.876Z,68.8160
2023-05-05T06:08:53.211Z,68.9660
2023-05-05T06:09:55.579Z,68.5988
2023-05-05T06:10:57.888Z,68.4125
2023-05-05T06:12:00.228Z,68.6352
2023-05-05T06:13:02.557Z,67.7398
2023-05-05T06:14:04.874Z,66.5005
2023-05-05T06:15:07.229Z,66.2654
2023-05-05T06:16:09.698Z,66.7742
2023-05-05T06:17:11.948Z,66.9178
2023-05-05T06:18:14.350Z,67.3709
2023-05-05T06:19:16.631Z,66.9316
2023-05-05T06:20:18.948Z,65.9974
2023-05-05T06:21:21.251Z,65.4746
2023-05-05T06:22:23.591Z,65.9702
2023-05-05T06:23:25.967Z,65.2047
2023-05-05T06:24:28.328Z,65.1996
2023-05-05T06:25:30.649Z,66.1221
2023-05-05T06:26:32.959Z,66.0271
2023-05-05T06:27:35.304Z,66.4524
2023-05-05T06:28:37.699Z,66.1662
2023-05-05T06:29:40.057Z,65.7615
2023-05-05T06:30:42.364Z,65.6126
2023-05-05T06:31:44.716Z,66.1127
2023-05-05T06:32:47.039Z,65.8370
2023-05-05T06:33:49.388Z,65.8124
2023-05-05T06:34:51.702Z,65.8858
2023-05-05T06:35:54.026Z,65.8439
2023-05-05T06:36:56.399Z,66.3593
2023-05-05T06:37:58.755Z,65.6203
2023-05-05T06:39:01.056Z,64.7856
2023-05-05T06:40:03.402Z,65.1864
2023-05-05T06:41:05.748Z,65.9909
2023-05-05T06:42:08.097Z,65.4716
2023-05-05T06:43:10.423Z,64.9635
2023-05-05T06:44:12.807Z,65.1874
2023-05-05T06:45:15.107Z,65.0136
2023-05-05T06:46:17.533Z,64.7118
2023-05-05T06:47:19.814Z,64.6910
2023-05-05T06:48:22.122Z,64.4305
2023-05-05T06:49:24.499Z,64.2503
2023-05-05T06:50:26.861Z,64.3275
2023-05-05T06:51:29.180Z,64.7088
2023-05-05T06:52:31.479Z,64.7899
2023-05-05T06:53:33.844Z,64.7102
2023-05-05T06:54:36.160Z,64.3201
2023-05-05T06:55:38.581Z,65.2374
2023-05-05T06:56:40.883Z,63.8016
2023-05-05T06:57:43.220Z,63.3330
2023-05-05T06:58:45.515Z,63.7397
2023-05-05T06:59:48.112Z,63.8148
2023-05-05T07:00:50.257Z,64.7269
2023-05-05T07:01:52.544Z,64.5018
2023-05-05T07:02:54.909Z,63.3446
2023-05-05T07:03:57.304Z,62.7609
2023-05-05T07:04:59.555Z,63.0420
2023-05-05T07:06:01.888Z,63.1825
2023-05-05T07:07:04.268Z,64.0650
2023-05-05T07:08:06.567Z,64.6936
2023-05-05T07:09:08.927Z,64.2737
2023-05-05T07:10:11.259Z,63.7677
2023-05-05T07:11:13.624Z,63.6011
2023-05-05T07:12:15.958Z,63.7235
2023-05-05T07:13:18.381Z,62.9209
2023-05-05T07:14:21.536Z,62.7365
2023-05-05T07:15:28.154Z,63.2072
2023-05-05T07:16:25.325Z,62.2364
2023-05-05T07:17:27.674Z,62.3844
2023-05-05T07:18:30.018Z,62.6566
2023-05-05T07:19:32.362Z,62.2841
2023-05-05T07:20:34.720Z,61.3393
2023-05-05T07:21:36.997Z,59.6252
2023-05-05T07:22:39.392Z,59.0122
2023-05-05T07:23:41.718Z,59.3392
2023-05-05T07:24:44.066Z,60.3462
2023-05-05T07:25:46.389Z,60.2382
2023-05-05T07:26:48.721Z,59.3380
2023-05-05T07:27:51.102Z,59.5248
2023-05-05T07:28:53.403Z,59.2914
2023-05-05T07:29:55.789Z,59.2386
2023-05-05T07:30:58.259Z,59.7902
2023-05-05T07:32:00.479Z,59.9553
2023-05-05T07:33:02.959Z,60.1844
2023-05-05T07:34:05.130Z,60.2366
2023-05-05T07:35:07.482Z,60.2255
2023-05-05T07:36:09.820Z,59.2772
2023-05-05T07:37:12.233Z,59.5933
2023-05-05T07:38:14.545Z,59.8992
2023-05-05T07:39:16.876Z,60.2506
2023-05-05T07:40:19.198Z,59.7612
2023-05-05T07:41:21.565Z,58.8787
2023-05-05T07:42:23.894Z,58.6418
2023-05-05T07:43:26.288Z,58.8529
2023-05-05T07:44:28.627Z,57.7075
2023-05-05T07:45:30.963Z,58.0487
2023-05-05T07:46:33.521Z,57.9364
2023-05-05T07:47:35.675Z,57.1023
2023-05-05T07:48:37.989Z,57.2472
2023-05-05T07:49:40.359Z,56.0584
2023-05-05T07:50:42.744Z,55.1957
2023-05-05T07:51:45.063Z,54.9315
2023-05-05T07:52:51.722Z,55.6467
2023-05-05T07:53:49.761Z,55.7706
2023-05-05T07:54:52.096Z,54.6513
2023-05-05T07:55:54.398Z,54.8026
2023-05-05T07:56:56.741Z,54.1841
2023-05-05T07:57:59.119Z,53.4976
2023-05-05T07:59:01.480Z,52.6564
2023-05-05T08:00:03.831Z,52.5429
2023-05-05T08:01:06.159Z,53.5216
2023-05-05T08:02:08.563Z,53.4723
2023-05-05T08:03:12.022Z,53.9236
2023-05-05T08:04:13.312Z,54.1524
2023-05-05T08:05:15.576Z,53.2899
2023-05-05T08:06:17.857Z,52.8836
2023-05-05T08:07:20.261Z,52.7314
2023-05-05T08:08:22.556Z,52.6819
2023-05-05T08:09:24.937Z,52.1896
2023-05-05T08:10:27.253Z,52.3449
2023-05-05T08:11:29.758Z,52.7681
2023-05-05T08:12:31.956Z,53.1333
2023-05-05T08:13:34.339Z,53.4156
2023-05-05T08:14:36.669Z,52.9223
2023-05-05T08:15:39.042Z,52.1085
2023-05-05T08:16:41.378Z,51.6009
2023-05-05T08:17:43.774Z,51.3057
2023-05-05T08:18:46.060Z,50.8679
2023-05-05T08:19:48.413Z,50.9888
2023-05-05T08:20:50.740Z,51.3268
2023-05-05T08:21:53.058Z,51.9085
2023-05-05T08:22:55.456Z,52.2383
2023-05-05T08:23:57.800Z,52.6922
2023-05-05T08:25:00.164Z,53.1872
2023-05-05T08:26:02.507Z,52.6778
2023-05-05T08:27:04.833Z,52.2040
2023-05-05T08:28:07.142Z,51.9538
2023-05-05T08:29:09.560Z,51.6004
2023-05-05T08:30:11.883Z,50.3528
2023-05-05T08:31:14.341Z,50.0834
2023-05-05T08:32:16.591Z,50.2470
2023-05-05T08:33:19.023Z,49.9136
2023-05-05T08:34:21.294Z,50.0509
2023-05-05T08:35:23.647Z,50.6753
2023-05-05T08:36:25.985Z,51.0925
2023-05-05T08:37:28.295Z,50.6202
2023-05-05T08:38:30.645Z,50.8281
2023-05-05T08:39:32.987Z,50.6224
2023-05-05T08:40:35.331Z,50.5307
2023-05-05T08:41:37.693Z,49.9568
2023-05-05T08:42:40.025Z,50.2148
2023-05-05T08:43:42.383Z,50.3042
2023-05-05T08:44:44.743Z,50.0827
2023-05-05T08:45:47.083Z,49.2990
2023-05-05T08:46:49.585Z,49.3830
2023-05-05T08:47:51.928Z,49.1459
2023-05-05T08:48:54.288Z,48.0233
2023-05-05T08:49:56.558Z,48.1052
2023-05-05T08:51:00.349Z,48.1976
2023-05-05T08:52:01.292Z,49.2514
2023-05-05T08:53:03.741Z,49.2193
2023-05-05T08:54:05.966Z,49.6731
2023-05-05T08:55:08.480Z,49.3564
2023-05-05T08:56:10.650Z,49.4405
2023-05-05T08:57:13.042Z,49.5760
2023-05-05T08:58:15.353Z,49.0284
2023-05-05T08:59:17.698Z,48.6530
2023-05-05T09:00:20.053Z,48.3522
2023-05-05T09:01:22.418Z,48.9597
2023-05-05T09:02:25.057Z,48.6383
2023-05-05T09:03:27.154Z,49.0201
2023-05-05T09:04:29.653Z,48.7284
2023-05-05T09:05:31.821Z,48.8481
2023-05-05T09:06:34.239Z,49.0534
2023-05-05T09:07:36.552Z,48.7388
2023-05-05T09:08:38.874Z,48.6947
2023-05-05T09:09:41.216Z,47.9426
2023-05-05T09:10:43.555Z,48.6794
2023-05-05T09:11:45.908Z,48.9482
2023-05-05T09:12:48.301Z,50.0015
2023-05-05T09:13:50.614Z,50.3261
2023-05-05T09:14:52.965Z,49.7552
2023-05-05T09:15:55.330Z,49.8149
2023-05-05T09:16:57.756Z,49.6600
2023-05-05T09:18:00.083Z,49.9552
2023-05-05T09:19:02.361Z,51.2112
2023-05-05T09:20:04.780Z,50.7202
2023-05-05T09:21:07.065Z,50.3308
2023-05-05T09:22:09.422Z,49.8097
2023-05-05T09:23:11.761Z,49.6668
2023-05-05T09:24:14.102Z,49.7614
2023-05-05T09:25:16.483Z,49.8648
2023-05-05T09:26:18.796Z,50.7106
2023-05-05T09:27:21.176Z,51.8494
2023-05-05T09:28:23.531Z,50.1666
2023-05-05T09:29:25.848Z,49.7350
2023-05-05T09:30:28.224Z,50.8964
2023-05-05T09:31:30.760Z,50.7033
2023-05-05T09:32:32.916Z,50.7676
2023-05-05T09:33:35.250Z,50.6642
2023-05-05T09:34:37.586Z,50.7388
2023-05-05T09:35:40.054Z,50.8784
2023-05-05T09:36:42.328Z,50.7046
2023-05-05T09:37:44.629Z,49.8900
2023-05-05T09:38:47.037Z,49.8834
2023-05-05T09:39:49.322Z,50.0003
2023-05-05T09:40:51.673Z,50.2032
2023-05-05T09:41:54.033Z,50.3480
2023-05-05T09:42:56.368Z,50.6943
2023-05-05T09:43:58.957Z,51.0909
2023-05-05T09:45:01.785Z,51.0451
2023-05-05T09:46:03.620Z,52.4391
2023-05-05T09:47:18.171Z,52.5864
2023-05-05T09:48:08.396Z,52.1447
2023-05-05T09:49:19.588Z,51.6376
2023-05-05T09:50:13.296Z,50.3568
2023-05-05T09:51:15.488Z,51.1297
2023-05-05T09:52:17.941Z,52.2146
2023-05-05T09:53:20.110Z,53.0190
2023-05-05T09:54:22.266Z,52.5444
2023-05-05T09:55:25.055Z,51.0794
2023-05-05T09:56:27.532Z,49.9916
2023-05-05T09:57:29.320Z,50.8361
2023-05-05T09:58:31.767Z,50.8898
2023-05-05T09:59:34.433Z,51.1740
2023-05-05T10:00:37.646Z,51.8603
2023-05-05T10:01:38.773Z,50.5304
2023-05-05T10:02:41.039Z,50.6682
2023-05-05T10:03:44.035Z,50.6136
2023-05-05T10:04:45.940Z,50.5249
2023-05-05T10:05:48.370Z,50.7706
2023-05-05T10:06:50.453Z,50.6168
2023-05-05T10:07:53.641Z,51.0470
2023-05-05T10:08:55.123Z,52.0300
2023-05-05T10:09:57.492Z,52.5927
2023-05-05T10:10:59.822Z,51.6908
2023-05-05T10:12:02.325Z,52.1236
2023-05-05T10:13:04.703Z,51.3663
2023-05-05T10:14:08.246Z,51.3996
2023-05-05T10:15:10.291Z,51.5963
2023-05-05T10:16:12.018Z,50.9057
2023-05-05T10:17:14.293Z,51.6134
2023-05-05T10:18:16.443Z,51.4768
2023-05-05T10:19:19.048Z,51.7361
2023-05-05T10:20:21.170Z,51.8049
2023-05-05T10:21:23.661Z,51.3580
2023-05-05T10:22:26.227Z,51.3126
2023-05-05T10:23:29.383Z,50.6625
2023-05-05T10:24:31.371Z,52.1969
2023-05-05T10:25:33.007Z,51.7649
2023-05-05T10:26:35.535Z,51.7197
2023-05-05T10:27:38.162Z,51.7340
2023-05-05T10:28:39.787Z,51.4184
2023-05-05T10:29:42.410Z,51.3485
2023-05-05T10:30:44.481Z,51.5317
2023-05-05T10:31:47.006Z,51.8728
2023-05-05T10:32:56.009Z,51.9001
2023-05-05T10:33:52.796Z,51.6865
2023-05-05T10:34:54.635Z,50.9355
2023-05-05T10:35:57.389Z,50.5908
2023-05-05T10:36:58.583Z,51.0768
2023-05-05T10:38:02.161Z,50.7439
2023-05-05T10:39:03.281Z,50.7796
2023-05-05T10:40:06.232Z,51.9400
2023-05-05T10:41:07.929Z,51.9166
2023-05-05T10:42:10.357Z,51.5929
2023-05-05T10:43:12.670Z,51.5648
2023-05-05T10:44:15.073Z,51.4940
2023-05-05T10:45:17.341Z,52.0866
2023-05-05T10:46:19.800Z,52.3603
2023-05-05T10:47:22.095Z,52.4161
2023-05-05T10:48:24.412Z,52.3155
2023-05-05T10:49:26.749Z,50.8878
2023-05-05T10:50:29.104Z,51.1632
2023-05-05T10:51:39.893Z,50.9513
2023-05-05T10:52:33.824Z,51.7274
2023-05-05T10:53:36.215Z,51.5556
2023-05-05T10:54:38.622Z,51.1222
2023-05-05T10:55:40.852Z,51.4773
2023-05-05T10:56:43.201Z,50.9475
2023-05-05T10:57:45.556Z,50.3738
2023-05-05T10:58:59.581Z,49.8806
2023-05-05T10:59:50.210Z,49.4841
2023-05-05T11:00:52.652Z,48.5492
2023-05-05T11:01:54.926Z,49.1791
2023-05-05T11:02:57.344Z,49.6985
2023-05-05T11:03:59.712Z,50.0941
2023-05-05T11:05:01.948Z,49.8952
2023-05-05T11:06:04.309Z,49.9438
2023-05-05T11:07:06.652Z,49.4608
2023-05-05T11:08:08.980Z,49.1219
2023-05-05T11:09:11.395Z,49.0940
2023-05-05T11:10:13.749Z,48.4962
2023-05-05T11:11:16.053Z,48.9976
2023-05-05T11:12:18.417Z,49.0891
2023-05-05T11:13:20.902Z,49.5339
2023-05-05T11:14:23.253Z,49.5523
2023-05-05T11:15:25.453Z,49.9711
2023-05-05T11:16:27.823Z,50.0678
2023-05-05T11:17:30.136Z,48.6515
2023-05-05T11:18:32.501Z,48.1339
2023-05-05T11:19:34.819Z,48.0212
2023-05-05T11:20:37.213Z,48.1928
2023-05-05T11:21:39.560Z,48.3603
2023-05-05T11:22:41.856Z,46.9431
2023-05-05T11:23:44.270Z,47.8085
2023-05-05T11:24:46.814Z,48.4157
2023-05-05T11:25:48.913Z,48.1960
2023-05-05T11:26:51.292Z,47.6010
2023-05-05T11:27:53.596Z,47.2336
2023-05-05T11:28:55.969Z,48.0423
2023-05-05T11:29:58.292Z,47.6161
2023-05-05T11:31:00.685Z,46.5590
2023-05-05T11:32:03.002Z,46.8964
2023-05-05T11:33:05.399Z,46.3882
2023-05-05T11:34:07.720Z,46.6428
2023-05-05T11:35:10.958Z,46.9050
2023-05-05T11:36:12.405Z,46.6022
2023-05-05T11:37:14.759Z,46.4136
2023-05-05T11:38:17.112Z,47.0096
2023-05-05T11:39:19.745Z,46.9824
2023-05-05T11:40:21.881Z,47.6842
2023-05-05T11:41:24.141Z,48.9804
2023-05-05T11:42:26.498Z,48.3037
2023-05-05T11:43:28.830Z,48.9978
2023-05-05T11:44:31.204Z,49.5631
2023-05-05T11:45:33.548Z,49.9367
2023-05-05T11:46:35.958Z,50.1387
2023-05-05T11:47:38.296Z,48.8221
2023-05-05T11:48:40.620Z,49.4495
2023-05-05T11:49:42.984Z,49.6785
2023-05-05T11:50:45.299Z,49.2011
2023-05-05T11:51:47.642Z,49.7668
2023-05-05T11:52:50.004Z,49.3152
2023-05-05T11:53:52.362Z,49.0925
2023-05-05T11:54:54.734Z,50.3515
2023-05-05T11:55:57.132Z,49.7370
2023-05-05T11:56:59.445Z,49.5320
2023-05-05T11:58:01.747Z,49.6442
2023-05-05T11:59:04.125Z,49.3970
2023-05-05T12:00:06.661Z,49.1750
2023-05-05T12:01:08.819Z,49.6051
2023-05-05T12:02:11.178Z,49.9836
2023-05-05T12:03:13.589Z,49.5324
2023-05-05T12:04:16.149Z,48.9953
2023-05-05T12:05:18.221Z,49.3755
2023-05-05T12:06:20.571Z,49.0203
2023-05-05T12:07:22.919Z,49.3670
2023-05-05T12:08:25.290Z,49.2000
2023-05-05T12:09:27.624Z,48.8010
2023-05-05T12:10:29.959Z,48.2687
2023-05-05T12:11:32.357Z,49.1353
2023-05-05T12:12:34.693Z,49.3345
2023-05-05T12:13:37.003Z,48.7366
2023-05-05T12:14:39.367Z,49.0980
2023-05-05T12:15:41.698Z,49.1292
2023-05-05T12:16:44.188Z,48.9518
2023-05-05T12:17:46.439Z,49.3819
2023-05-05T12:18:48.751Z,49.2258
2023-05-05T12:19:51.106Z,48.1024
2023-05-05T12:20:53.437Z,48.9185
2023-05-05T12:21:55.790Z,49.2531
2023-05-05T12:22:58.214Z,50.3413
2023-05-05T12:24:00.467Z,49.4442
2023-05-05T12:25:02.928Z,47.5222
2023-05-05T12:26:05.213Z,48.1188
2023-05-05T12:27:07.605Z,48.8471
2023-05-05T12:28:09.922Z,49.0856
2023-05-05T12:29:12.217Z,48.7315
2023-05-05T12:30:14.621Z,48.6347
2023-05-05T12:31:17.007Z,48.4794
2023-05-05T12:32:19.355Z,48.5029
2023-05-05T12:33:21.634Z,47.7851